Time,TemperatureF,DewpointF,PressureIn,WindDirection,WindDirectionDegrees,WindSpeedMPH,WindSpeedGustMPH,Humidity,HourlyPrecipIn,Conditions,Clouds,dailyrainin,SoftwareType,DateUTC
2013-06-28 00:12:00,74.8,74.2,29.33,ENE,74,3.0,10.0,98,0.00,,,0.57,Wunderground v.1.15,2013-06-28 04:12:00,
2013-06-28 00:42:00,74.7,74.1,29.34,SW,215,2.0,11.0,98,0.00,,,0.57,Wunderground v.1.15,2013-06-28 04:42:00,
2013-06-28 01:12:00,-999.9,-99.9,29.33,WSW,239,3.0,3.0,96,0.00,,,0.57,Wunderground v.1.15,2013-06-28 05:12:00,
2013-06-28 01:42:00,74.0,73.1,29.33,West,265,2.0,2.0,97,0.00,,,0.00,Wunderground v.1.15,2013-06-28 05:42:00,
2013-06-28 02:12:00,73.9,73.0,29.32,SW,223,2.0,2.0,97,0.00,,,0.00,Wunderground v.1.15,2013-06-28 06:12:00,
2013-06-28 02:42:00,73.9,73.0,29.32,SW,219,0.0,9.0,97,0.00,,,0.00,Wunderground v.1.15,2013-06-28 06:42:00,
2013-06-28 03:12:00,74.3,73.4,29.31,South,184,3.0,7.0,97,0.00,,,0.00,Wunderground v.1.15,2013-06-28 07:12:00,
2013-06-28 03:42:00,74.7,73.5,29.31,SSW,192,2.0,10.0,96,0.00,,,0.00,Wunderground v.1.15,2013-06-28 07:42:00,
2013-06-28 04:12:00,-999.9,-99.9,29.30,South,176,0.0,7.0,96,0.00,,,0.00,Wunderground v.1.15,2013-06-28 08:12:00,
2013-06-28 04:42:00,-999.9,-99.9,29.29,SW,234,2.0,2.0,95,0.00,,,0.00,Wunderground v.1.15,2013-06-28 08:42:00,
2013-06-28 05:12:00,74.4,72.9,29.30,SW,214,2.0,2.0,95,0.00,,,0.00,Wunderground v.1.15,2013-06-28 09:12:00,
2013-06-28 05:42:00,-999.9,-99.9,29.31,SSW,208,1.0,9.0,95,0.00,,,0.00,Wunderground v.1.15,2013-06-28 09:42:00,
2013-06-28 06:12:00,74.2,72.7,29.31,SSE,167,1.0,1.0,95,0.00,,,0.00,Wunderground v.1.15,2013-06-28 10:12:00,
2013-06-28 06:42:00,74.2,72.7,29.31,South,181,1.0,1.0,95,0.00,,,0.00,Wunderground v.1.15,2013-06-28 10:42:00,
2013-06-28 07:12:00,74.5,72.7,29.32,SSE,155,1.0,1.0,94,0.00,,,0.00,Wunderground v.1.15,2013-06-28 11:12:00,
2013-06-28 07:42:00,74.7,72.9,29.32,West,260,2.0,6.0,94,0.00,,,0.00,Wunderground v.1.15,2013-06-28 11:42:00,
2013-06-28 08:12:00,-999.9,-99.9,29.32,West,271,1.0,7.0,93,0.00,,,0.00,Wunderground v.1.15,2013-06-28 12:12:00,
2013-06-28 08:42:00,-999.9,-99.9,29.31,SW,215,3.0,5.0,88,0.00,,,0.00,Wunderground v.1.15,2013-06-28 12:42:00,
2013-06-28 09:12:00,75.1,71.6,29.31,West,262,4.0,13.0,89,0.00,,,0.01,Wunderground v.1.15,2013-06-28 13:12:00,
2013-06-28 09:42:00,73.1,71.9,29.30,WSW,252,0.0,15.0,96,0.00,,,0.06,Wunderground v.1.15,2013-06-28 13:42:00,
2013-06-28 10:12:00,-999.9,-99.9,29.30,WSW,242,2.0,7.0,94,0.00,,,0.06,Wunderground v.1.15,2013-06-28 14:12:00,
2013-06-28 10:42:00,-999.9,-99.9,29.30,WSW,257,2.0,8.0,87,0.00,,,0.06,Wunderground v.1.15,2013-06-28 14:42:00,
2013-06-28 11:12:00,-999.9,-99.9,29.29,SW,223,2.0,2.0,81,0.00,,,0.06,Wunderground v.1.15,2013-06-28 15:12:00,
2013-06-28 11:42:00,-999.9,-99.9,29.30,South,175,2.0,2.0,77,0.00,,,0.06,Wunderground v.1.15,2013-06-28 15:42:00,
2013-06-28 12:12:00,-999.9,-99.9,29.31,West,261,5.0,5.0,75,0.00,,,0.06,Wunderground v.1.15,2013-06-28 16:12:00,
2013-06-28 12:42:00,-999.9,-99.9,29.30,SW,220,2.0,2.0,73,0.00,,,0.06,Wunderground v.1.15,2013-06-28 16:42:00,
2013-06-28 13:12:00,-999.9,-99.9,29.30,SW,231,4.0,7.0,73,0.00,,,0.06,Wunderground v.1.15,2013-06-28 17:12:00,
2013-06-28 13:42:00,-999.9,-99.9,29.30,WNW,290,4.0,11.0,68,0.00,,,0.06,Wunderground v.1.15,2013-06-28 17:42:00,
2013-06-28 14:12:00,-999.9,-99.9,29.28,SSW,213,3.0,16.0,67,0.00,,,0.06,Wunderground v.1.15,2013-06-28 18:12:00,
2013-06-28 14:42:00,-999.9,-99.9,29.28,SSW,207,5.0,5.0,65,0.00,,,0.06,Wunderground v.1.15,2013-06-28 18:42:00,
2013-06-28 15:12:00,-999.9,-99.9,29.28,WSW,252,3.0,12.0,66,0.00,,,0.06,Wunderground v.1.15,2013-06-28 19:12:00,
2013-06-28 15:42:00,-999.9,-99.9,29.27,SW,227,4.0,15.0,63,0.00,,,0.06,Wunderground v.1.15,2013-06-28 19:42:00,
2013-06-28 16:12:00,-999.9,-99.9,29.25,SW,215,4.0,4.0,61,0.00,,,0.06,Wunderground v.1.15,2013-06-28 20:12:00,
2013-06-28 16:42:00,-999.9,-99.9,29.25,SW,217,4.0,12.0,59,0.00,,,0.06,Wunderground v.1.15,2013-06-28 20:42:00,
2013-06-28 17:12:00,-999.9,-99.9,29.26,South,180,4.0,4.0,59,0.00,,,0.06,Wunderground v.1.15,2013-06-28 21:12:00,
2013-06-28 17:42:00,-999.9,-99.9,29.25,South,184,2.0,2.0,62,0.00,,,0.06,Wunderground v.1.15,2013-06-28 21:42:00,
2013-06-28 18:12:00,-999.9,-99.9,29.26,SSE,165,1.0,1.0,66,0.00,,,0.06,Wunderground v.1.15,2013-06-28 22:12:00,
2013-06-28 18:42:00,-999.9,-99.9,29.27,SSW,205,2.0,7.0,68,0.00,,,0.06,Wunderground v.1.15,2013-06-28 22:42:00,
2013-06-28 19:12:00,-999.9,-99.9,29.27,WSW,243,1.0,10.0,69,0.00,,,0.06,Wunderground v.1.15,2013-06-28 23:12:00,
2013-06-28 19:42:00,-999.9,-99.9,29.26,WSW,250,1.0,1.0,70,0.00,,,0.06,Wunderground v.1.15,2013-06-28 23:42:00,
2013-06-28 20:12:00,-999.9,-99.9,29.27,SW,227,0.0,5.0,73,0.00,,,0.06,Wunderground v.1.15,2013-06-29 00:12:00,
2013-06-28 20:42:00,-999.9,-99.9,29.28,SSW,209,0.0,3.0,73,0.00,,,0.06,Wunderground v.1.15,2013-06-29 00:42:00,
2013-06-28 21:12:00,-999.9,-99.9,29.28,WSW,242,4.0,8.0,74,0.00,,,0.06,Wunderground v.1.15,2013-06-29 01:12:00,
2013-06-28 21:42:00,-999.9,-99.9,29.29,SW,221,2.0,19.0,68,0.00,,,0.06,Wunderground v.1.15,2013-06-29 01:42:00,
2013-06-28 22:12:00,-999.9,-99.9,29.30,SSW,209,2.0,13.0,72,0.00,,,0.06,Wunderground v.1.15,2013-06-29 02:12:00,
2013-06-28 22:42:00,-999.9,-99.9,29.30,SW,232,3.0,3.0,74,0.00,,,0.06,Wunderground v.1.15,2013-06-29 02:42:00,
2013-06-28 23:12:00,-999.9,-99.9,29.29,SW,214,0.0,11.0,77,0.00,,,0.06,Wunderground v.1.15,2013-06-29 03:12:00,
2013-06-28 23:42:00,-999.9,-99.9,29.29,South,182,0.0,6.0,79,0.00,,,0.06,Wunderground v.1.15,2013-06-29 03:42:00,